sensor_id;sensor_type;location;lat;lon;timestamp;pressure;altitude;pressure_sealevel;temperature;humidity
60874;BME280;46715;40.642;-7.920;2023-05-02T00:01:39;96412.44;;;17.61;76.08
60874;BME280;46715;40.642;-7.920;2023-05-02T00:03:40;96409.34;;;17.59;76.51
60874;BME280;46715;40.642;-7.920;2023-05-02T00:05:42;96399.13;;;17.58;76.90
60874;BME280;46715;40.642;-7.920;2023-05-02T00:07:43;96396.13;;;17.50;77.22
60874;BME280;46715;40.642;-7.920;2023-05-02T00:09:44;96390.09;;;17.50;77.01
60874;BME280;46715;40.642;-7.920;2023-05-02T00:11:45;96391.97;;;17.49;77.29
60874;BME280;46715;40.642;-7.920;2023-05-02T00:13:46;96383.25;;;17.49;76.86
60874;BME280;46715;40.642;-7.920;2023-05-02T00:15:46;96384.06;;;17.49;77.03
60874;BME280;46715;40.642;-7.920;2023-05-02T00:17:47;96381.72;;;17.48;76.66
60874;BME280;46715;40.642;-7.920;2023-05-02T00:19:48;96386.53;;;17.46;76.51
60874;BME280;46715;40.642;-7.920;2023-05-02T00:21:49;96382.00;;;17.37;76.43
60874;BME280;46715;40.642;-7.920;2023-05-02T00:23:50;96379.38;;;17.37;76.52
60874;BME280;46715;40.642;-7.920;2023-05-02T00:25:51;96378.13;;;17.35;77.00
60874;BME280;46715;40.642;-7.920;2023-05-02T00:27:52;96370.06;;;17.31;77.62
60874;BME280;46715;40.642;-7.920;2023-05-02T00:29:53;96366.19;;;17.29;77.80
60874;BME280;46715;40.642;-7.920;2023-05-02T00:31:55;96362.13;;;17.23;77.83
60874;BME280;46715;40.642;-7.920;2023-05-02T00:33:56;96357.78;;;17.18;77.92
60874;BME280;46715;40.642;-7.920;2023-05-02T00:35:57;96356.53;;;17.15;78.31
60874;BME280;46715;40.642;-7.920;2023-05-02T00:37:58;96353.44;;;17.13;78.57
60874;BME280;46715;40.642;-7.920;2023-05-02T00:39:59;96340.41;;;17.08;79.03
60874;BME280;46715;40.642;-7.920;2023-05-02T00:42:01;96335.16;;;17.08;78.86
60874;BME280;46715;40.642;-7.920;2023-05-02T00:44:02;96332.50;;;17.08;79.38
60874;BME280;46715;40.642;-7.920;2023-05-02T00:46:03;96318.09;;;17.06;80.10
60874;BME280;46715;40.642;-7.920;2023-05-02T00:48:04;96319.16;;;17.04;81.19
60874;BME280;46715;40.642;-7.920;2023-05-02T00:50:05;96316.53;;;17.04;81.27
60874;BME280;46715;40.642;-7.920;2023-05-02T00:52:07;96303.22;;;17.01;81.58
60874;BME280;46715;40.642;-7.920;2023-05-02T00:54:14;96310.03;;;17.02;81.29
60874;BME280;46715;40.642;-7.920;2023-05-02T00:56:15;96310.63;;;16.99;81.57
60874;BME280;46715;40.642;-7.920;2023-05-02T00:58:17;96308.00;;;16.99;80.96
60874;BME280;46715;40.642;-7.920;2023-05-02T01:00:18;96304.28;;;17.09;80.16
60874;BME280;46715;40.642;-7.920;2023-05-02T01:02:39;96312.69;;;17.11;80.45
60874;BME280;46715;40.642;-7.920;2023-05-02T01:07:04;96307.69;;;16.92;80.36
60874;BME280;46715;40.642;-7.920;2023-05-02T01:11:30;96307.13;;;16.72;81.16
60874;BME280;46715;40.642;-7.920;2023-05-02T01:13:36;96307.56;;;16.65;81.70
60874;BME280;46715;40.642;-7.920;2023-05-02T01:15:39;96301.97;;;16.58;82.16
60874;BME280;46715;40.642;-7.920;2023-05-02T01:17:43;96310.63;;;16.59;82.42
60874;BME280;46715;40.642;-7.920;2023-05-02T01:19:51;96304.91;;;16.57;83.15
60874;BME280;46715;40.642;-7.920;2023-05-02T01:21:55;96306.28;;;16.54;82.86
60874;BME280;46715;40.642;-7.920;2023-05-02T01:24:08;96310.00;;;16.53;82.44
60874;BME280;46715;40.642;-7.920;2023-05-02T01:26:20;96317.25;;;16.47;82.28
60874;BME280;46715;40.642;-7.920;2023-05-02T01:30:30;96309.50;;;16.42;83.26
60874;BME280;46715;40.642;-7.920;2023-05-02T01:32:33;96310.09;;;16.39;83.51
60874;BME280;46715;40.642;-7.920;2023-05-02T01:34:41;96299.09;;;16.37;83.52
60874;BME280;46715;40.642;-7.920;2023-05-02T01:36:44;96288.09;;;16.35;83.22
60874;BME280;46715;40.642;-7.920;2023-05-02T01:38:46;96283.75;;;16.30;83.30
60874;BME280;46715;40.642;-7.920;2023-05-02T01:40:50;96277.53;;;16.26;83.29
60874;BME280;46715;40.642;-7.920;2023-05-02T01:42:52;96284.66;;;16.26;82.67
60874;BME280;46715;40.642;-7.920;2023-05-02T01:44:54;96283.88;;;16.25;82.47
60874;BME280;46715;40.642;-7.920;2023-05-02T01:46:59;96278.16;;;16.23;82.45
60874;BME280;46715;40.642;-7.920;2023-05-02T01:49:05;96279.81;;;16.19;82.32
60874;BME280;46715;40.642;-7.920;2023-05-02T01:51:07;96280.75;;;16.14;82.63
60874;BME280;46715;40.642;-7.920;2023-05-02T01:53:08;96281.63;;;16.10;82.79
60874;BME280;46715;40.642;-7.920;2023-05-02T01:55:13;96274.81;;;16.09;82.63
60874;BME280;46715;40.642;-7.920;2023-05-02T01:57:15;96276.78;;;16.03;82.36
60874;BME280;46715;40.642;-7.920;2023-05-02T01:59:19;96268.13;;;16.02;82.94
60874;BME280;46715;40.642;-7.920;2023-05-02T02:01:24;96262.69;;;15.99;83.28
60874;BME280;46715;40.642;-7.920;2023-05-02T02:03:28;96271.38;;;15.99;83.43
60874;BME280;46715;40.642;-7.920;2023-05-02T02:05:31;96273.50;;;15.97;83.01
60874;BME280;46715;40.642;-7.920;2023-05-02T02:07:33;96263.16;;;15.92;83.18
60874;BME280;46715;40.642;-7.920;2023-05-02T02:09:35;96267.31;;;15.93;83.26
60874;BME280;46715;40.642;-7.920;2023-05-02T02:11:48;96267.31;;;15.93;83.38
60874;BME280;46715;40.642;-7.920;2023-05-02T02:13:58;96259.72;;;15.92;83.53
60874;BME280;46715;40.642;-7.920;2023-05-02T02:16:03;96259.56;;;15.88;83.32
60874;BME280;46715;40.642;-7.920;2023-05-02T02:18:20;96263.72;;;15.89;83.75
60874;BME280;46715;40.642;-7.920;2023-05-02T02:20:29;96258.78;;;15.88;84.34
60874;BME280;46715;40.642;-7.920;2023-05-02T02:22:35;96246.13;;;15.90;84.75
60874;BME280;46715;40.642;-7.920;2023-05-02T02:24:39;96245.00;;;15.91;85.00
60874;BME280;46715;40.642;-7.920;2023-05-02T02:26:40;96243.94;;;15.92;85.12
60874;BME280;46715;40.642;-7.920;2023-05-02T02:28:42;96240.88;;;15.98;85.17
60874;BME280;46715;40.642;-7.920;2023-05-02T02:30:44;96246.50;;;16.06;85.03
60874;BME280;46715;40.642;-7.920;2023-05-02T02:32:45;96244.16;;;16.04;84.67
60874;BME280;46715;40.642;-7.920;2023-05-02T02:34:46;96240.59;;;16.00;84.89
60874;BME280;46715;40.642;-7.920;2023-05-02T02:36:54;96235.50;;;16.04;84.80
60874;BME280;46715;40.642;-7.920;2023-05-02T02:39:15;96239.66;;;16.05;84.68
60874;BME280;46715;40.642;-7.920;2023-05-02T02:41:22;96243.69;;;16.02;84.47
60874;BME280;46715;40.642;-7.920;2023-05-02T02:43:50;96242.44;;;15.99;84.09
60874;BME280;46715;40.642;-7.920;2023-05-02T02:46:16;96233.91;;;15.94;83.97
60874;BME280;46715;40.642;-7.920;2023-05-02T02:48:34;96232.34;;;15.93;83.75
60874;BME280;46715;40.642;-7.920;2023-05-02T02:53:07;96232.66;;;15.91;84.28
60874;BME280;46715;40.642;-7.920;2023-05-02T02:55:23;96242.38;;;15.91;85.04
60874;BME280;46715;40.642;-7.920;2023-05-02T03:00:20;96239.59;;;15.87;85.38
60874;BME280;46715;40.642;-7.920;2023-05-02T03:02:26;96232.78;;;15.86;85.71
60874;BME280;46715;40.642;-7.920;2023-05-02T03:04:33;96237.44;;;15.89;85.50
60874;BME280;46715;40.642;-7.920;2023-05-02T03:06:34;96225.06;;;15.90;85.38
60874;BME280;46715;40.642;-7.920;2023-05-02T03:08:42;96230.91;;;15.87;85.58
60874;BME280;46715;40.642;-7.920;2023-05-02T03:10:48;96225.53;;;15.92;85.17
60874;BME280;46715;40.642;-7.920;2023-05-02T03:12:49;96227.09;;;15.93;85.09
60874;BME280;46715;40.642;-7.920;2023-05-02T03:14:50;96220.28;;;15.92;84.96
60874;BME280;46715;40.642;-7.920;2023-05-02T03:16:51;96224.78;;;15.91;85.12
60874;BME280;46715;40.642;-7.920;2023-05-02T03:18:53;96225.38;;;15.88;84.66
60874;BME280;46715;40.642;-7.920;2023-05-02T03:20:54;96218.38;;;15.83;84.74
60874;BME280;46715;40.642;-7.920;2023-05-02T03:22:55;96220.69;;;15.85;85.33
60874;BME280;46715;40.642;-7.920;2023-05-02T03:24:55;96216.25;;;15.85;85.61
60874;BME280;46715;40.642;-7.920;2023-05-02T03:26:57;96214.97;;;15.83;85.92
60874;BME280;46715;40.642;-7.920;2023-05-02T03:29:04;96213.59;;;15.85;85.50
60874;BME280;46715;40.642;-7.920;2023-05-02T03:31:12;96216.53;;;15.84;85.32
60874;BME280;46715;40.642;-7.920;2023-05-02T03:33:14;96207.09;;;15.83;85.92
60874;BME280;46715;40.642;-7.920;2023-05-02T03:35:17;96205.53;;;15.82;86.54
60874;BME280;46715;40.642;-7.920;2023-05-02T03:37:20;96211.28;;;15.84;86.77
60874;BME280;46715;40.642;-7.920;2023-05-02T03:39:21;96202.78;;;15.87;86.71
60874;BME280;46715;40.642;-7.920;2023-05-02T03:41:23;96199.84;;;15.89;86.77
60874;BME280;46715;40.642;-7.920;2023-05-02T03:43:30;96196.47;;;15.88;86.85
60874;BME280;46715;40.642;-7.920;2023-05-02T03:45:31;96197.22;;;15.89;86.70
60874;BME280;46715;40.642;-7.920;2023-05-02T03:47:33;96195.34;;;15.89;86.62
60874;BME280;46715;40.642;-7.920;2023-05-02T03:49:34;96194.28;;;15.90;86.36
60874;BME280;46715;40.642;-7.920;2023-05-02T03:51:37;96191.66;;;15.90;86.00
60874;BME280;46715;40.642;-7.920;2023-05-02T03:53:38;96198.78;;;15.90;85.83
60874;BME280;46715;40.642;-7.920;2023-05-02T03:55:39;96201.09;;;15.91;85.58
60874;BME280;46715;40.642;-7.920;2023-05-02T03:57:42;96197.84;;;15.85;85.53
60874;BME280;46715;40.642;-7.920;2023-05-02T03:59:46;96198.72;;;15.81;85.92
60874;BME280;46715;40.642;-7.920;2023-05-02T04:01:57;96190.94;;;15.76;85.66
60874;BME280;46715;40.642;-7.920;2023-05-02T04:04:09;96184.75;;;15.72;85.81
60874;BME280;46715;40.642;-7.920;2023-05-02T04:06:19;96188.56;;;15.65;86.44
60874;BME280;46715;40.642;-7.920;2023-05-02T04:08:27;96187.03;;;15.64;86.99
60874;BME280;46715;40.642;-7.920;2023-05-02T04:10:28;96184.09;;;15.66;87.19
60874;BME280;46715;40.642;-7.920;2023-05-02T04:12:32;96183.31;;;15.65;87.76
60874;BME280;46715;40.642;-7.920;2023-05-02T04:14:33;96178.53;;;15.67;88.25
60874;BME280;46715;40.642;-7.920;2023-05-02T04:16:34;96180.38;;;15.67;88.31
60874;BME280;46715;40.642;-7.920;2023-05-02T04:18:35;96181.16;;;15.67;88.51
60874;BME280;46715;40.642;-7.920;2023-05-02T04:20:42;96174.22;;;15.72;88.55
60874;BME280;46715;40.642;-7.920;2023-05-02T04:22:46;96177.94;;;15.71;88.38
60874;BME280;46715;40.642;-7.920;2023-05-02T04:24:47;96176.66;;;15.68;88.06
60874;BME280;46715;40.642;-7.920;2023-05-02T04:26:49;96183.00;;;15.67;87.81
60874;BME280;46715;40.642;-7.920;2023-05-02T04:28:49;96173.41;;;15.62;87.60
60874;BME280;46715;40.642;-7.920;2023-05-02T04:30:51;96170.44;;;15.55;87.33
60874;BME280;46715;40.642;-7.920;2023-05-02T04:32:56;96171.50;;;15.54;87.33
60874;BME280;46715;40.642;-7.920;2023-05-02T04:35:00;96175.81;;;15.50;87.55
60874;BME280;46715;40.642;-7.920;2023-05-02T04:37:01;96164.97;;;15.51;87.95
60874;BME280;46715;40.642;-7.920;2023-05-02T04:39:03;96165.47;;;15.54;88.31
60874;BME280;46715;40.642;-7.920;2023-05-02T04:41:08;96160.88;;;15.59;88.64
60874;BME280;46715;40.642;-7.920;2023-05-02T04:43:15;96155.50;;;15.64;88.48
60874;BME280;46715;40.642;-7.920;2023-05-02T04:45:22;96154.28;;;15.71;88.64
60874;BME280;46715;40.642;-7.920;2023-05-02T04:47:24;96154.91;;;15.76;88.71
60874;BME280;46715;40.642;-7.920;2023-05-02T04:49:25;96153.44;;;15.84;88.39
60874;BME280;46715;40.642;-7.920;2023-05-02T04:51:26;96152.22;;;15.90;87.92
60874;BME280;46715;40.642;-7.920;2023-05-02T04:53:29;96148.97;;;15.93;87.68
60874;BME280;46715;40.642;-7.920;2023-05-02T04:55:31;96147.91;;;15.94;87.34
60874;BME280;46715;40.642;-7.920;2023-05-02T04:57:31;96150.53;;;15.94;87.47
60874;BME280;46715;40.642;-7.920;2023-05-02T04:59:35;96149.75;;;15.94;87.68
60874;BME280;46715;40.642;-7.920;2023-05-02T05:01:36;96143.28;;;16.00;88.20
60874;BME280;46715;40.642;-7.920;2023-05-02T05:03:38;96147.81;;;16.17;88.10
60874;BME280;46715;40.642;-7.920;2023-05-02T05:05:40;96144.44;;;16.25;87.86
60874;BME280;46715;40.642;-7.920;2023-05-02T05:07:45;96148.94;;;16.33;87.56
60874;BME280;46715;40.642;-7.920;2023-05-02T05:09:46;96150.06;;;16.41;86.93
60874;BME280;46715;40.642;-7.920;2023-05-02T05:11:48;96139.97;;;16.43;86.56
60874;BME280;46715;40.642;-7.920;2023-05-02T05:13:50;96140.16;;;16.47;86.27
60874;BME280;46715;40.642;-7.920;2023-05-02T05:15:51;96145.41;;;16.56;86.03
60874;BME280;46715;40.642;-7.920;2023-05-02T05:17:54;96144.50;;;16.60;85.80
60874;BME280;46715;40.642;-7.920;2023-05-02T05:19:56;96145.59;;;16.77;85.00
60874;BME280;46715;40.642;-7.920;2023-05-02T05:21:57;96145.59;;;16.85;84.25
60874;BME280;46715;40.642;-7.920;2023-05-02T05:23:58;96140.03;;;16.87;84.09
60874;BME280;46715;40.642;-7.920;2023-05-02T05:26:15;96153.19;;;17.04;83.18
60874;BME280;46715;40.642;-7.920;2023-05-02T05:28:19;96151.19;;;17.19;82.28
60874;BME280;46715;40.642;-7.920;2023-05-02T05:30:21;96143.88;;;17.33;81.21
60874;BME280;46715;40.642;-7.920;2023-05-02T05:32:21;96142.16;;;17.46;79.72
60874;BME280;46715;40.642;-7.920;2023-05-02T05:34:24;96137.63;;;17.55;78.82
60874;BME280;46715;40.642;-7.920;2023-05-02T05:36:27;96145.16;;;17.75;76.78
60874;BME280;46715;40.642;-7.920;2023-05-02T05:38:29;96151.81;;;17.81;75.95
60874;BME280;46715;40.642;-7.920;2023-05-02T05:40:30;96150.41;;;17.83;75.74
60874;BME280;46715;40.642;-7.920;2023-05-02T05:42:32;96146.84;;;17.88;74.17
60874;BME280;46715;40.642;-7.920;2023-05-02T05:44:37;96150.38;;;18.01;73.25
60874;BME280;46715;40.642;-7.920;2023-05-02T05:46:39;96150.31;;;18.10;72.80
60874;BME280;46715;40.642;-7.920;2023-05-02T05:48:43;96149.84;;;18.16;72.10
60874;BME280;46715;40.642;-7.920;2023-05-02T05:50:44;96143.16;;;18.19;71.35
60874;BME280;46715;40.642;-7.920;2023-05-02T05:52:46;96142.97;;;18.24;69.93
60874;BME280;46715;40.642;-7.920;2023-05-02T05:54:47;96140.09;;;18.38;69.56
60874;BME280;46715;40.642;-7.920;2023-05-02T05:56:48;96135.66;;;18.51;67.37
60874;BME280;46715;40.642;-7.920;2023-05-02T05:58:52;96128.47;;;18.60;66.39
60874;BME280;46715;40.642;-7.920;2023-05-02T06:00:55;96126.31;;;18.74;65.79
60874;BME280;46715;40.642;-7.920;2023-05-02T06:02:57;96136.66;;;18.88;64.91
60874;BME280;46715;40.642;-7.920;2023-05-02T06:05:04;96136.56;;;18.97;64.18
60874;BME280;46715;40.642;-7.920;2023-05-02T06:07:05;96127.47;;;19.07;63.71
60874;BME280;46715;40.642;-7.920;2023-05-02T06:09:11;96135.13;;;19.21;63.28
60874;BME280;46715;40.642;-7.920;2023-05-02T06:11:11;96134.72;;;19.31;62.47
60874;BME280;46715;40.642;-7.920;2023-05-02T06:13:12;96139.06;;;19.48;61.38
60874;BME280;46715;40.642;-7.920;2023-05-02T06:15:16;96146.25;;;19.60;61.10
60874;BME280;46715;40.642;-7.920;2023-05-02T06:17:17;96138.78;;;19.74;59.64
60874;BME280;46715;40.642;-7.920;2023-05-02T06:19:17;96141.84;;;19.76;59.13
60874;BME280;46715;40.642;-7.920;2023-05-02T06:21:18;96130.34;;;19.93;58.93
60874;BME280;46715;40.642;-7.920;2023-05-02T06:23:20;96130.78;;;20.08;58.81
60874;BME280;46715;40.642;-7.920;2023-05-02T06:25:21;96129.78;;;20.13;57.75
60874;BME280;46715;40.642;-7.920;2023-05-02T06:27:22;96140.69;;;20.36;56.82
60874;BME280;46715;40.642;-7.920;2023-05-02T06:29:23;96126.44;;;20.40;55.58
60874;BME280;46715;40.642;-7.920;2023-05-02T06:31:24;96126.53;;;20.44;55.35
60874;BME280;46715;40.642;-7.920;2023-05-02T06:33:25;96127.75;;;20.59;54.81
60874;BME280;46715;40.642;-7.920;2023-05-02T06:35:26;96126.84;;;20.67;54.45
60874;BME280;46715;40.642;-7.920;2023-05-02T06:37:32;96130.44;;;20.87;54.29
60874;BME280;46715;40.642;-7.920;2023-05-02T06:39:33;96129.63;;;20.99;53.08
60874;BME280;46715;40.642;-7.920;2023-05-02T06:41:34;96130.88;;;21.18;52.29
60874;BME280;46715;40.642;-7.920;2023-05-02T06:43:36;96130.69;;;21.10;52.50
60874;BME280;46715;40.642;-7.920;2023-05-02T06:45:37;96131.56;;;21.31;51.38
60874;BME280;46715;40.642;-7.920;2023-05-02T06:47:38;96126.19;;;21.43;51.75
60874;BME280;46715;40.642;-7.920;2023-05-02T06:49:39;96128.41;;;21.53;50.77
60874;BME280;46715;40.642;-7.920;2023-05-02T06:51:40;96126.25;;;21.59;51.62
60874;BME280;46715;40.642;-7.920;2023-05-02T06:53:42;96128.22;;;21.78;50.64
60874;BME280;46715;40.642;-7.920;2023-05-02T06:55:44;96127.47;;;21.93;50.47
60874;BME280;46715;40.642;-7.920;2023-05-02T06:57:47;96122.31;;;22.01;49.94
60874;BME280;46715;40.642;-7.920;2023-05-02T06:59:49;96130.34;;;22.20;49.86
60874;BME280;46715;40.642;-7.920;2023-05-02T07:01:50;96121.59;;;22.36;49.23
60874;BME280;46715;40.642;-7.920;2023-05-02T07:03:51;96122.88;;;22.42;49.83
60874;BME280;46715;40.642;-7.920;2023-05-02T07:05:52;96133.03;;;22.56;48.53
60874;BME280;46715;40.642;-7.920;2023-05-02T07:07:53;96129.47;;;22.68;48.66
60874;BME280;46715;40.642;-7.920;2023-05-02T07:09:53;96128.84;;;22.74;47.87
60874;BME280;46715;40.642;-7.920;2023-05-02T07:11:54;96132.25;;;22.94;47.06
60874;BME280;46715;40.642;-7.920;2023-05-02T07:13:55;96133.31;;;23.09;47.07
60874;BME280;46715;40.642;-7.920;2023-05-02T07:15:56;96128.41;;;23.31;46.02
60874;BME280;46715;40.642;-7.920;2023-05-02T07:17:57;96138.13;;;23.43;45.48
60874;BME280;46715;40.642;-7.920;2023-05-02T07:19:58;96133.59;;;23.43;45.02
60874;BME280;46715;40.642;-7.920;2023-05-02T07:21:58;96126.41;;;23.71;44.65
60874;BME280;46715;40.642;-7.920;2023-05-02T07:24:00;96134.72;;;23.89;44.07
60874;BME280;46715;40.642;-7.920;2023-05-02T07:26:01;96135.44;;;24.12;43.34
60874;BME280;46715;40.642;-7.920;2023-05-02T07:28:02;96119.97;;;24.48;42.47
60874;BME280;46715;40.642;-7.920;2023-05-02T07:30:04;96122.00;;;25.23;42.03
60874;BME280;46715;40.642;-7.920;2023-05-02T07:32:06;96124.84;;;25.82;40.07
60874;BME280;46715;40.642;-7.920;2023-05-02T07:34:07;96125.09;;;26.15;39.70
60874;BME280;46715;40.642;-7.920;2023-05-02T07:36:07;96127.84;;;26.26;39.12
60874;BME280;46715;40.642;-7.920;2023-05-02T07:38:08;96117.16;;;26.26;38.47
60874;BME280;46715;40.642;-7.920;2023-05-02T07:40:10;96115.69;;;26.39;39.70
60874;BME280;46715;40.642;-7.920;2023-05-02T07:42:11;96114.38;;;26.81;38.55
60874;BME280;46715;40.642;-7.920;2023-05-02T07:44:12;96111.88;;;27.39;36.85
60874;BME280;46715;40.642;-7.920;2023-05-02T07:46:13;96115.72;;;27.78;36.00
60874;BME280;46715;40.642;-7.920;2023-05-02T07:48:15;96105.75;;;28.14;36.11
60874;BME280;46715;40.642;-7.920;2023-05-02T07:50:16;96108.06;;;28.16;35.10
60874;BME280;46715;40.642;-7.920;2023-05-02T07:52:18;96108.81;;;28.20;34.95
60874;BME280;46715;40.642;-7.920;2023-05-02T07:54:20;96109.97;;;28.19;35.56
60874;BME280;46715;40.642;-7.920;2023-05-02T07:56:21;96109.97;;;27.83;35.84
60874;BME280;46715;40.642;-7.920;2023-05-02T07:58:22;96121.84;;;27.96;35.79
60874;BME280;46715;40.642;-7.920;2023-05-02T08:00:23;96119.16;;;28.14;35.48
60874;BME280;46715;40.642;-7.920;2023-05-02T08:02:24;96121.03;;;28.35;35.38
60874;BME280;46715;40.642;-7.920;2023-05-02T08:04:25;96116.72;;;28.74;34.15
60874;BME280;46715;40.642;-7.920;2023-05-02T08:06:26;96117.16;;;28.51;34.44
60874;BME280;46715;40.642;-7.920;2023-05-02T08:08:28;96116.41;;;28.47;34.19
60874;BME280;46715;40.642;-7.920;2023-05-02T08:10:29;96129.41;;;28.63;34.28
60874;BME280;46715;40.642;-7.920;2023-05-02T08:12:30;96125.53;;;28.78;33.82
60874;BME280;46715;40.642;-7.920;2023-05-02T08:14:31;96122.56;;;29.36;32.90
60874;BME280;46715;40.642;-7.920;2023-05-02T08:16:32;96116.06;;;29.89;32.53
60874;BME280;46715;40.642;-7.920;2023-05-02T08:18:32;96124.00;;;30.42;31.37
60874;BME280;46715;40.642;-7.920;2023-05-02T08:20:34;96118.16;;;30.82;31.11
60874;BME280;46715;40.642;-7.920;2023-05-02T08:22:35;96117.25;;;31.26;30.53
60874;BME280;46715;40.642;-7.920;2023-05-02T08:24:35;96120.66;;;31.82;29.73
60874;BME280;46715;40.642;-7.920;2023-05-02T08:26:37;96114.34;;;32.36;28.89
60874;BME280;46715;40.642;-7.920;2023-05-02T08:28:38;96119.00;;;32.75;28.54
60874;BME280;46715;40.642;-7.920;2023-05-02T08:30:39;96105.66;;;33.05;27.03
60874;BME280;46715;40.642;-7.920;2023-05-02T08:32:40;96111.84;;;33.22;27.75
60874;BME280;46715;40.642;-7.920;2023-05-02T08:34:41;96102.56;;;33.23;27.25
60874;BME280;46715;40.642;-7.920;2023-05-02T08:36:42;96105.00;;;33.17;26.63
60874;BME280;46715;40.642;-7.920;2023-05-02T08:38:43;96110.53;;;32.93;27.28
60874;BME280;46715;40.642;-7.920;2023-05-02T08:40:47;96115.56;;;33.11;27.34
60874;BME280;46715;40.642;-7.920;2023-05-02T08:42:53;96111.63;;;33.33;27.30
60874;BME280;46715;40.642;-7.920;2023-05-02T08:44:57;96113.84;;;33.54;27.02
60874;BME280;46715;40.642;-7.920;2023-05-02T08:46:59;96103.03;;;33.01;27.11
60874;BME280;46715;40.642;-7.920;2023-05-02T08:49:00;96121.09;;;33.24;27.39
60874;BME280;46715;40.642;-7.920;2023-05-02T08:51:03;96118.84;;;33.03;27.23
60874;BME280;46715;40.642;-7.920;2023-05-02T08:53:05;96121.00;;;32.71;28.02
60874;BME280;46715;40.642;-7.920;2023-05-02T08:55:07;96123.47;;;32.62;28.01
60874;BME280;46715;40.642;-7.920;2023-05-02T08:57:09;96113.47;;;32.62;27.79
60874;BME280;46715;40.642;-7.920;2023-05-02T08:59:10;96122.44;;;32.56;28.29
60874;BME280;46715;40.642;-7.920;2023-05-02T09:01:14;96120.59;;;32.53;28.33
60874;BME280;46715;40.642;-7.920;2023-05-02T09:03:30;96116.25;;;32.95;26.93
60874;BME280;46715;40.642;-7.920;2023-05-02T09:05:35;96121.19;;;33.01;28.05
60874;BME280;46715;40.642;-7.920;2023-05-02T09:08:01;96121.56;;;32.83;27.57
60874;BME280;46715;40.642;-7.920;2023-05-02T09:10:03;96116.09;;;32.86;28.09
60874;BME280;46715;40.642;-7.920;2023-05-02T09:12:05;96125.88;;;33.17;27.80
60874;BME280;46715;40.642;-7.920;2023-05-02T09:14:15;96119.78;;;33.12;27.72
60874;BME280;46715;40.642;-7.920;2023-05-02T09:16:19;96129.16;;;32.88;27.89
60874;BME280;46715;40.642;-7.920;2023-05-02T09:18:22;96129.91;;;32.88;27.86
60874;BME280;46715;40.642;-7.920;2023-05-02T09:20:22;96129.53;;;32.70;28.26
60874;BME280;46715;40.642;-7.920;2023-05-02T09:22:24;96137.22;;;32.71;28.05
60874;BME280;46715;40.642;-7.920;2023-05-02T09:24:25;96130.22;;;32.74;28.65
60874;BME280;46715;40.642;-7.920;2023-05-02T09:26:29;96133.91;;;32.40;28.70
60874;BME280;46715;40.642;-7.920;2023-05-02T09:28:40;96127.97;;;32.05;28.63
60874;BME280;46715;40.642;-7.920;2023-05-02T09:30:42;96142.03;;;31.92;28.86
60874;BME280;46715;40.642;-7.920;2023-05-02T09:32:46;96128.19;;;32.38;29.13
60874;BME280;46715;40.642;-7.920;2023-05-02T09:35:09;96140.94;;;32.77;28.33
60874;BME280;46715;40.642;-7.920;2023-05-02T09:37:09;96128.84;;;33.22;27.80
60874;BME280;46715;40.642;-7.920;2023-05-02T09:39:15;96131.44;;;33.62;26.37
60874;BME280;46715;40.642;-7.920;2023-05-02T09:44:22;96132.00;;;34.49;25.62
60874;BME280;46715;40.642;-7.920;2023-05-02T09:46:23;96121.75;;;34.57;25.31
60874;BME280;46715;40.642;-7.920;2023-05-02T09:48:29;96131.34;;;34.87;25.37
60874;BME280;46715;40.642;-7.920;2023-05-02T09:50:34;96133.47;;;35.35;25.49
60874;BME280;46715;40.642;-7.920;2023-05-02T09:52:36;96141.91;;;35.37;25.25
60874;BME280;46715;40.642;-7.920;2023-05-02T09:54:36;96139.88;;;35.41;24.25
60874;BME280;46715;40.642;-7.920;2023-05-02T09:56:54;96139.66;;;35.35;24.67
60874;BME280;46715;40.642;-7.920;2023-05-02T09:59:14;96147.53;;;35.16;25.54
60874;BME280;46715;40.642;-7.920;2023-05-02T10:01:22;96137.47;;;35.56;24.60
60874;BME280;46715;40.642;-7.920;2023-05-02T10:03:24;96141.47;;;35.38;24.61
60874;BME280;46715;40.642;-7.920;2023-05-02T10:05:27;96140.50;;;35.71;24.67
60874;BME280;46715;40.642;-7.920;2023-05-02T10:07:29;96133.34;;;35.38;24.41
60874;BME280;46715;40.642;-7.920;2023-05-02T10:09:30;96135.41;;;35.34;24.13
60874;BME280;46715;40.642;-7.920;2023-05-02T10:11:37;96137.25;;;35.50;24.10
60874;BME280;46715;40.642;-7.920;2023-05-02T10:13:42;96139.16;;;34.98;24.62
60874;BME280;46715;40.642;-7.920;2023-05-02T10:15:44;96134.94;;;35.74;24.44
60874;BME280;46715;40.642;-7.920;2023-05-02T10:17:50;96134.81;;;35.91;23.61
60874;BME280;46715;40.642;-7.920;2023-05-02T10:20:03;96129.59;;;35.96;24.21
60874;BME280;46715;40.642;-7.920;2023-05-02T10:22:06;96133.94;;;36.51;22.98
60874;BME280;46715;40.642;-7.920;2023-05-02T10:24:07;96126.31;;;36.01;23.65
60874;BME280;46715;40.642;-7.920;2023-05-02T10:26:14;96126.13;;;35.96;23.93
60874;BME280;46715;40.642;-7.920;2023-05-02T10:28:16;96119.50;;;36.54;23.74
60874;BME280;46715;40.642;-7.920;2023-05-02T10:30:17;96123.16;;;36.82;22.68
60874;BME280;46715;40.642;-7.920;2023-05-02T10:32:28;96121.03;;;37.09;22.96
60874;BME280;46715;40.642;-7.920;2023-05-02T10:34:35;96115.88;;;37.11;21.79
60874;BME280;46715;40.642;-7.920;2023-05-02T10:36:36;96111.38;;;37.17;21.74
60874;BME280;46715;40.642;-7.920;2023-05-02T10:38:38;96114.56;;;36.62;21.83
60874;BME280;46715;40.642;-7.920;2023-05-02T10:43:14;96102.34;;;34.58;23.67
60874;BME280;46715;40.642;-7.920;2023-05-02T10:45:36;96104.59;;;35.15;22.95
60874;BME280;46715;40.642;-7.920;2023-05-02T10:50:56;96102.78;;;34.57;22.81
60874;BME280;46715;40.642;-7.920;2023-05-02T10:53:30;96094.00;;;34.53;23.94
60874;BME280;46715;40.642;-7.920;2023-05-02T10:58:48;96112.91;;;33.94;25.37
60874;BME280;46715;40.642;-7.920;2023-05-02T11:00:49;96110.88;;;33.65;24.85
60874;BME280;46715;40.642;-7.920;2023-05-02T11:02:51;96112.16;;;33.77;24.71
60874;BME280;46715;40.642;-7.920;2023-05-02T11:05:04;96108.97;;;33.82;26.31
60874;BME280;46715;40.642;-7.920;2023-05-02T11:11:45;96119.31;;;32.17;27.01
60874;BME280;46715;40.642;-7.920;2023-05-02T11:13:49;96109.91;;;32.45;26.40
60874;BME280;46715;40.642;-7.920;2023-05-02T11:18:03;96112.06;;;32.94;26.57